sensor_id;sensor_type;location;lat;lon;timestamp;temperature;humidity
25953;DHT22;13750;50.804;8.764;2023-06-04T00:01:22;14.30;49.60
25953;DHT22;13750;50.804;8.764;2023-06-04T00:03:48;14.30;49.70
25953;DHT22;13750;50.804;8.764;2023-06-04T00:06:13;14.20;49.80
25953;DHT22;13750;50.804;8.764;2023-06-04T00:08:39;14.20;50.00
25953;DHT22;13750;50.804;8.764;2023-06-04T00:11:05;14.20;50.10
25953;DHT22;13750;50.804;8.764;2023-06-04T00:13:30;14.20;50.10
25953;DHT22;13750;50.804;8.764;2023-06-04T00:15:56;14.10;50.30
25953;DHT22;13750;50.804;8.764;2023-06-04T00:18:21;14.10;50.50
25953;DHT22;13750;50.804;8.764;2023-06-04T00:20:47;14.00;50.50
25953;DHT22;13750;50.804;8.764;2023-06-04T00:23:12;14.00;50.50
25953;DHT22;13750;50.804;8.764;2023-06-04T00:25:38;13.90;50.60
25953;DHT22;13750;50.804;8.764;2023-06-04T00:28:04;13.90;50.70
25953;DHT22;13750;50.804;8.764;2023-06-04T00:30:29;13.90;50.90
25953;DHT22;13750;50.804;8.764;2023-06-04T00:32:55;13.80;51.00
25953;DHT22;13750;50.804;8.764;2023-06-04T00:35:20;13.80;51.00
25953;DHT22;13750;50.804;8.764;2023-06-04T00:37:47;13.80;51.10
25953;DHT22;13750;50.804;8.764;2023-06-04T00:40:12;13.70;51.10
25953;DHT22;13750;50.804;8.764;2023-06-04T00:42:38;13.70;51.20
25953;DHT22;13750;50.804;8.764;2023-06-04T00:45:04;13.70;51.20
25953;DHT22;13750;50.804;8.764;2023-06-04T00:47:33;13.70;51.10
25953;DHT22;13750;50.804;8.764;2023-06-04T00:49:59;13.70;51.10
25953;DHT22;13750;50.804;8.764;2023-06-04T00:52:25;13.70;51.20
25953;DHT22;13750;50.804;8.764;2023-06-04T00:54:52;13.60;51.20
25953;DHT22;13750;50.804;8.764;2023-06-04T00:57:22;13.70;51.20
25953;DHT22;13750;50.804;8.764;2023-06-04T00:59:48;13.60;51.20
25953;DHT22;13750;50.804;8.764;2023-06-04T01:07:15;13.60;51.20
25953;DHT22;13750;50.804;8.764;2023-06-04T01:09:43;13.60;51.30
25953;DHT22;13750;50.804;8.764;2023-06-04T01:12:10;13.60;51.30
25953;DHT22;13750;50.804;8.764;2023-06-04T01:14:36;13.50;51.30
25953;DHT22;13750;50.804;8.764;2023-06-04T01:17:13;13.50;51.40
25953;DHT22;13750;50.804;8.764;2023-06-04T01:25:34;13.50;51.70
25953;DHT22;13750;50.804;8.764;2023-06-04T01:28:05;13.40;51.60
25953;DHT22;13750;50.804;8.764;2023-06-04T01:30:32;13.40;51.60
25953;DHT22;13750;50.804;8.764;2023-06-04T01:32:59;13.40;51.80
25953;DHT22;13750;50.804;8.764;2023-06-04T01:35:26;13.40;51.80
25953;DHT22;13750;50.804;8.764;2023-06-04T01:37:54;13.40;51.80
25953;DHT22;13750;50.804;8.764;2023-06-04T01:40:21;13.40;51.80
25953;DHT22;13750;50.804;8.764;2023-06-04T01:42:46;13.30;52.00
25953;DHT22;13750;50.804;8.764;2023-06-04T01:45:12;13.40;52.00
25953;DHT22;13750;50.804;8.764;2023-06-04T01:47:38;13.30;52.00
25953;DHT22;13750;50.804;8.764;2023-06-04T01:50:07;13.20;52.20
25953;DHT22;13750;50.804;8.764;2023-06-04T01:52:39;13.20;52.40
25953;DHT22;13750;50.804;8.764;2023-06-04T01:55:07;13.20;52.40
25953;DHT22;13750;50.804;8.764;2023-06-04T01:57:33;13.20;52.50
25953;DHT22;13750;50.804;8.764;2023-06-04T01:59:59;13.10;52.50
25953;DHT22;13750;50.804;8.764;2023-06-04T02:02:25;13.10;52.50
25953;DHT22;13750;50.804;8.764;2023-06-04T02:04:51;12.90;52.70
25953;DHT22;13750;50.804;8.764;2023-06-04T02:07:18;12.80;52.80
25953;DHT22;13750;50.804;8.764;2023-06-04T02:09:46;12.80;52.90
25953;DHT22;13750;50.804;8.764;2023-06-04T02:12:12;12.80;53.10
25953;DHT22;13750;50.804;8.764;2023-06-04T02:14:37;12.70;53.20
25953;DHT22;13750;50.804;8.764;2023-06-04T02:17:04;12.70;53.30
25953;DHT22;13750;50.804;8.764;2023-06-04T02:19:30;12.80;53.40
25953;DHT22;13750;50.804;8.764;2023-06-04T02:21:59;12.70;53.50
25953;DHT22;13750;50.804;8.764;2023-06-04T02:24:25;12.70;53.50
25953;DHT22;13750;50.804;8.764;2023-06-04T02:26:50;12.70;53.50
25953;DHT22;13750;50.804;8.764;2023-06-04T02:29:16;12.60;53.60
25953;DHT22;13750;50.804;8.764;2023-06-04T02:31:41;12.60;53.60
25953;DHT22;13750;50.804;8.764;2023-06-04T02:34:07;12.60;53.60
25953;DHT22;13750;50.804;8.764;2023-06-04T02:36:33;12.50;53.70
25953;DHT22;13750;50.804;8.764;2023-06-04T02:38:59;12.50;53.80
25953;DHT22;13750;50.804;8.764;2023-06-04T02:41:26;12.40;53.80
25953;DHT22;13750;50.804;8.764;2023-06-04T02:43:52;12.40;53.90
25953;DHT22;13750;50.804;8.764;2023-06-04T02:46:17;12.40;53.90
25953;DHT22;13750;50.804;8.764;2023-06-04T02:48:43;12.40;53.90
25953;DHT22;13750;50.804;8.764;2023-06-04T02:51:08;12.40;53.90
25953;DHT22;13750;50.804;8.764;2023-06-04T02:53:36;12.40;54.00
25953;DHT22;13750;50.804;8.764;2023-06-04T02:56:01;12.40;54.00
25953;DHT22;13750;50.804;8.764;2023-06-04T02:58:27;12.40;54.20
25953;DHT22;13750;50.804;8.764;2023-06-04T03:00:54;12.30;54.20
25953;DHT22;13750;50.804;8.764;2023-06-04T03:03:20;12.20;54.30
25953;DHT22;13750;50.804;8.764;2023-06-04T03:05:45;12.20;54.40
25953;DHT22;13750;50.804;8.764;2023-06-04T03:08:11;12.20;54.50
25953;DHT22;13750;50.804;8.764;2023-06-04T03:10:37;12.20;54.40
25953;DHT22;13750;50.804;8.764;2023-06-04T03:13:03;12.20;54.50
25953;DHT22;13750;50.804;8.764;2023-06-04T03:15:29;12.10;54.50
25953;DHT22;13750;50.804;8.764;2023-06-04T03:17:54;12.10;54.60
25953;DHT22;13750;50.804;8.764;2023-06-04T03:20:20;12.10;54.70
25953;DHT22;13750;50.804;8.764;2023-06-04T03:22:50;12.10;54.80
25953;DHT22;13750;50.804;8.764;2023-06-04T03:25:15;12.10;55.00
25953;DHT22;13750;50.804;8.764;2023-06-04T03:27:41;12.10;54.90
25953;DHT22;13750;50.804;8.764;2023-06-04T03:30:07;12.00;55.00
25953;DHT22;13750;50.804;8.764;2023-06-04T03:32:33;12.00;55.10
25953;DHT22;13750;50.804;8.764;2023-06-04T03:35:00;12.00;55.10
25953;DHT22;13750;50.804;8.764;2023-06-04T03:37:25;11.90;55.10
25953;DHT22;13750;50.804;8.764;2023-06-04T03:39:52;11.90;55.30
25953;DHT22;13750;50.804;8.764;2023-06-04T03:42:17;11.90;55.20
25953;DHT22;13750;50.804;8.764;2023-06-04T03:44:43;11.80;55.40
25953;DHT22;13750;50.804;8.764;2023-06-04T03:47:09;11.80;55.40
25953;DHT22;13750;50.804;8.764;2023-06-04T03:49:35;11.80;55.50
25953;DHT22;13750;50.804;8.764;2023-06-04T03:52:00;11.70;55.50
25953;DHT22;13750;50.804;8.764;2023-06-04T03:54:26;11.80;55.50
25953;DHT22;13750;50.804;8.764;2023-06-04T03:56:51;11.70;55.60
25953;DHT22;13750;50.804;8.764;2023-06-04T03:59:17;11.80;55.50
25953;DHT22;13750;50.804;8.764;2023-06-04T04:01:43;11.80;55.60
25953;DHT22;13750;50.804;8.764;2023-06-04T04:04:09;11.70;55.50
25953;DHT22;13750;50.804;8.764;2023-06-04T04:06:35;11.70;55.70
25953;DHT22;13750;50.804;8.764;2023-06-04T04:09:00;11.70;55.70
25953;DHT22;13750;50.804;8.764;2023-06-04T04:11:26;11.70;55.80
25953;DHT22;13750;50.804;8.764;2023-06-04T04:13:52;11.60;55.90
25953;DHT22;13750;50.804;8.764;2023-06-04T04:16:17;11.70;55.90
25953;DHT22;13750;50.804;8.764;2023-06-04T04:18:43;11.70;56.10
25953;DHT22;13750;50.804;8.764;2023-06-04T04:21:10;11.70;56.00
25953;DHT22;13750;50.804;8.764;2023-06-04T04:23:38;11.70;56.00
25953;DHT22;13750;50.804;8.764;2023-06-04T04:26:05;11.70;56.00
25953;DHT22;13750;50.804;8.764;2023-06-04T04:28:32;11.70;56.30
25953;DHT22;13750;50.804;8.764;2023-06-04T04:30:58;11.80;56.30
25953;DHT22;13750;50.804;8.764;2023-06-04T04:33:25;11.80;56.10
25953;DHT22;13750;50.804;8.764;2023-06-04T04:35:51;11.90;56.40
25953;DHT22;13750;50.804;8.764;2023-06-04T04:38:18;11.90;56.40
25953;DHT22;13750;50.804;8.764;2023-06-04T04:40:44;11.90;56.30
25953;DHT22;13750;50.804;8.764;2023-06-04T04:43:13;11.90;56.40
25953;DHT22;13750;50.804;8.764;2023-06-04T04:45:39;12.00;56.20
25953;DHT22;13750;50.804;8.764;2023-06-04T04:48:04;12.00;56.20
25953;DHT22;13750;50.804;8.764;2023-06-04T04:50:30;12.00;56.40
25953;DHT22;13750;50.804;8.764;2023-06-04T04:52:57;12.10;56.30
25953;DHT22;13750;50.804;8.764;2023-06-04T04:55:23;12.10;56.10
25953;DHT22;13750;50.804;8.764;2023-06-04T04:57:48;12.10;56.20
25953;DHT22;13750;50.804;8.764;2023-06-04T05:00:14;12.10;56.20
25953;DHT22;13750;50.804;8.764;2023-06-04T05:02:41;12.10;56.10
25953;DHT22;13750;50.804;8.764;2023-06-04T05:05:06;12.10;56.10
25953;DHT22;13750;50.804;8.764;2023-06-04T05:07:32;12.10;56.30
25953;DHT22;13750;50.804;8.764;2023-06-04T05:09:57;12.20;56.50
25953;DHT22;13750;50.804;8.764;2023-06-04T05:12:25;12.20;56.30
25953;DHT22;13750;50.804;8.764;2023-06-04T05:14:52;12.20;56.20
25953;DHT22;13750;50.804;8.764;2023-06-04T05:17:17;12.20;56.10
25953;DHT22;13750;50.804;8.764;2023-06-04T05:19:47;12.30;56.00
25953;DHT22;13750;50.804;8.764;2023-06-04T05:22:12;12.30;56.00
25953;DHT22;13750;50.804;8.764;2023-06-04T05:24:41;12.30;56.00
25953;DHT22;13750;50.804;8.764;2023-06-04T05:27:06;12.40;55.90
25953;DHT22;13750;50.804;8.764;2023-06-04T05:29:34;12.40;55.90
25953;DHT22;13750;50.804;8.764;2023-06-04T05:32:00;12.40;55.80
25953;DHT22;13750;50.804;8.764;2023-06-04T05:34:26;12.40;55.80
25953;DHT22;13750;50.804;8.764;2023-06-04T05:36:52;12.50;55.70
25953;DHT22;13750;50.804;8.764;2023-06-04T05:39:18;12.40;55.60
25953;DHT22;13750;50.804;8.764;2023-06-04T05:41:44;12.50;55.60
25953;DHT22;13750;50.804;8.764;2023-06-04T05:44:10;12.60;55.60
25953;DHT22;13750;50.804;8.764;2023-06-04T05:46:36;12.60;55.70
25953;DHT22;13750;50.804;8.764;2023-06-04T05:49:02;12.60;55.40
25953;DHT22;13750;50.804;8.764;2023-06-04T05:51:28;12.70;55.40
25953;DHT22;13750;50.804;8.764;2023-06-04T05:53:54;12.70;55.30
25953;DHT22;13750;50.804;8.764;2023-06-04T05:56:20;12.80;55.30
25953;DHT22;13750;50.804;8.764;2023-06-04T05:58:51;12.80;55.10
25953;DHT22;13750;50.804;8.764;2023-06-04T06:01:35;12.90;55.00
25953;DHT22;13750;50.804;8.764;2023-06-04T06:04:14;13.00;54.80
25953;DHT22;13750;50.804;8.764;2023-06-04T06:06:41;13.10;54.70
25953;DHT22;13750;50.804;8.764;2023-06-04T06:09:12;13.10;54.60
25953;DHT22;13750;50.804;8.764;2023-06-04T06:11:48;13.10;54.30
25953;DHT22;13750;50.804;8.764;2023-06-04T06:14:14;13.20;54.20
25953;DHT22;13750;50.804;8.764;2023-06-04T06:16:42;13.20;54.20
25953;DHT22;13750;50.804;8.764;2023-06-04T06:19:11;13.30;54.10
25953;DHT22;13750;50.804;8.764;2023-06-04T06:21:40;13.40;53.90
25953;DHT22;13750;50.804;8.764;2023-06-04T06:24:10;13.40;53.80
25953;DHT22;13750;50.804;8.764;2023-06-04T06:26:43;13.60;53.80
25953;DHT22;13750;50.804;8.764;2023-06-04T06:29:14;13.60;53.70
25953;DHT22;13750;50.804;8.764;2023-06-04T06:31:52;13.70;53.60
25953;DHT22;13750;50.804;8.764;2023-06-04T06:34:18;13.70;53.60
25953;DHT22;13750;50.804;8.764;2023-06-04T06:36:43;13.80;53.50
25953;DHT22;13750;50.804;8.764;2023-06-04T06:39:09;13.90;53.40
25953;DHT22;13750;50.804;8.764;2023-06-04T06:41:36;13.90;53.30
25953;DHT22;13750;50.804;8.764;2023-06-04T06:44:06;14.00;53.10
25953;DHT22;13750;50.804;8.764;2023-06-04T06:46:33;14.10;53.10
25953;DHT22;13750;50.804;8.764;2023-06-04T06:48:58;14.20;53.10
25953;DHT22;13750;50.804;8.764;2023-06-04T06:51:24;14.20;53.00
25953;DHT22;13750;50.804;8.764;2023-06-04T06:53:50;14.20;52.80
25953;DHT22;13750;50.804;8.764;2023-06-04T06:56:19;14.30;52.70
25953;DHT22;13750;50.804;8.764;2023-06-04T06:58:45;14.40;52.60
25953;DHT22;13750;50.804;8.764;2023-06-04T07:01:11;14.50;52.80
25953;DHT22;13750;50.804;8.764;2023-06-04T07:03:37;14.50;52.60
25953;DHT22;13750;50.804;8.764;2023-06-04T07:06:06;14.60;52.90
25953;DHT22;13750;50.804;8.764;2023-06-04T07:08:34;14.60;52.70
25953;DHT22;13750;50.804;8.764;2023-06-04T07:11:08;14.70;52.50
25953;DHT22;13750;50.804;8.764;2023-06-04T07:16:38;14.80;52.50
25953;DHT22;13750;50.804;8.764;2023-06-04T07:19:17;14.80;52.40
25953;DHT22;13750;50.804;8.764;2023-06-04T07:21:42;15.00;52.30
25953;DHT22;13750;50.804;8.764;2023-06-04T07:24:23;15.00;52.40
25953;DHT22;13750;50.804;8.764;2023-06-04T07:26:52;15.10;52.20
25953;DHT22;13750;50.804;8.764;2023-06-04T07:29:32;15.10;52.00
25953;DHT22;13750;50.804;8.764;2023-06-04T07:32:18;15.30;51.70
25953;DHT22;13750;50.804;8.764;2023-06-04T07:35:02;15.30;51.50
25953;DHT22;13750;50.804;8.764;2023-06-04T07:37:40;15.30;51.00
25953;DHT22;13750;50.804;8.764;2023-06-04T07:40:34;15.40;50.70
25953;DHT22;13750;50.804;8.764;2023-06-04T07:44:01;15.60;50.30
25953;DHT22;13750;50.804;8.764;2023-06-04T07:49:40;15.70;49.90
25953;DHT22;13750;50.804;8.764;2023-06-04T07:52:10;15.70;49.40
25953;DHT22;13750;50.804;8.764;2023-06-04T07:54:54;15.80;48.90
25953;DHT22;13750;50.804;8.764;2023-06-04T07:57:28;15.90;48.70
25953;DHT22;13750;50.804;8.764;2023-06-04T08:03:17;16.00;48.40
25953;DHT22;13750;50.804;8.764;2023-06-04T08:05:52;16.10;47.80
25953;DHT22;13750;50.804;8.764;2023-06-04T08:08:23;16.10;47.50
25953;DHT22;13750;50.804;8.764;2023-06-04T08:10:56;16.10;47.50
25953;DHT22;13750;50.804;8.764;2023-06-04T08:13:24;16.10;47.50
25953;DHT22;13750;50.804;8.764;2023-06-04T08:16:00;16.20;47.10
25953;DHT22;13750;50.804;8.764;2023-06-04T08:18:26;16.30;46.00
25953;DHT22;13750;50.804;8.764;2023-06-04T08:20:52;16.40;46.10
25953;DHT22;13750;50.804;8.764;2023-06-04T08:23:17;16.50;45.80
25953;DHT22;13750;50.804;8.764;2023-06-04T08:25:43;16.50;45.80
25953;DHT22;13750;50.804;8.764;2023-06-04T08:28:13;16.60;45.90
25953;DHT22;13750;50.804;8.764;2023-06-04T08:30:39;16.60;46.00
25953;DHT22;13750;50.804;8.764;2023-06-04T08:33:06;16.60;46.10
25953;DHT22;13750;50.804;8.764;2023-06-04T08:35:32;16.60;44.70
25953;DHT22;13750;50.804;8.764;2023-06-04T08:38:00;16.80;43.60
25953;DHT22;13750;50.804;8.764;2023-06-04T08:40:33;16.90;43.10
25953;DHT22;13750;50.804;8.764;2023-06-04T08:43:12;16.90;43.10
25953;DHT22;13750;50.804;8.764;2023-06-04T08:45:51;17.10;43.60
25953;DHT22;13750;50.804;8.764;2023-06-04T08:48:45;17.10;43.60
25953;DHT22;13750;50.804;8.764;2023-06-04T08:51:29;17.10;43.20
25953;DHT22;13750;50.804;8.764;2023-06-04T08:54:20;17.20;42.80
25953;DHT22;13750;50.804;8.764;2023-06-04T08:57:02;17.20;43.20
25953;DHT22;13750;50.804;8.764;2023-06-04T09:00:01;17.20;43.90
25953;DHT22;13750;50.804;8.764;2023-06-04T09:03:00;17.30;43.50
25953;DHT22;13750;50.804;8.764;2023-06-04T09:05:38;17.40;42.60
25953;DHT22;13750;50.804;8.764;2023-06-04T09:08:31;17.40;42.60
25953;DHT22;13750;50.804;8.764;2023-06-04T09:14:29;17.50;42.20
25953;DHT22;13750;50.804;8.764;2023-06-04T09:17:24;17.60;42.50
25953;DHT22;13750;50.804;8.764;2023-06-04T09:20:03;17.70;42.70
25953;DHT22;13750;50.804;8.764;2023-06-04T09:22:36;17.70;42.60
25953;DHT22;13750;50.804;8.764;2023-06-04T09:25:18;17.70;42.80
25953;DHT22;13750;50.804;8.764;2023-06-04T09:28:19;17.70;42.90
25953;DHT22;13750;50.804;8.764;2023-06-04T09:31:14;17.80;42.00
25953;DHT22;13750;50.804;8.764;2023-06-04T09:36:43;17.90;41.80
25953;DHT22;13750;50.804;8.764;2023-06-04T09:42:49;18.00;41.80
25953;DHT22;13750;50.804;8.764;2023-06-04T09:52:05;18.00;43.30
25953;DHT22;13750;50.804;8.764;2023-06-04T09:55:16;18.10;43.40
25953;DHT22;13750;50.804;8.764;2023-06-04T09:58:11;18.10;43.40
25953;DHT22;13750;50.804;8.764;2023-06-04T10:01:15;18.10;42.80
25953;DHT22;13750;50.804;8.764;2023-06-04T10:10:16;18.20;42.90
25953;DHT22;13750;50.804;8.764;2023-06-04T10:12:42;18.20;43.50
25953;DHT22;13750;50.804;8.764;2023-06-04T10:15:12;18.30;43.50
25953;DHT22;13750;50.804;8.764;2023-06-04T10:17:38;18.40;42.40
25953;DHT22;13750;50.804;8.764;2023-06-04T10:20:04;18.50;42.40
25953;DHT22;13750;50.804;8.764;2023-06-04T10:22:31;18.60;43.00
25953;DHT22;13750;50.804;8.764;2023-06-04T10:24:58;18.60;43.30
25953;DHT22;13750;50.804;8.764;2023-06-04T10:27:24;18.60;43.80
25953;DHT22;13750;50.804;8.764;2023-06-04T10:29:50;18.60;43.20
25953;DHT22;13750;50.804;8.764;2023-06-04T10:32:17;18.80;42.30
25953;DHT22;13750;50.804;8.764;2023-06-04T10:34:43;18.80;42.50
25953;DHT22;13750;50.804;8.764;2023-06-04T10:37:23;18.90;42.00
25953;DHT22;13750;50.804;8.764;2023-06-04T10:39:55;18.90;42.00
25953;DHT22;13750;50.804;8.764;2023-06-04T10:42:23;19.00;42.20
25953;DHT22;13750;50.804;8.764;2023-06-04T10:44:51;19.00;42.10
25953;DHT22;13750;50.804;8.764;2023-06-04T10:49:50;18.90;42.10
25953;DHT22;13750;50.804;8.764;2023-06-04T10:52:16;18.90;41.10
25953;DHT22;13750;50.804;8.764;2023-06-04T10:54:43;19.00;41.00
25953;DHT22;13750;50.804;8.764;2023-06-04T10:57:11;18.90;41.30
25953;DHT22;13750;50.804;8.764;2023-06-04T10:59:37;18.90;41.30
25953;DHT22;13750;50.804;8.764;2023-06-04T11:02:05;18.90;41.30
25953;DHT22;13750;50.804;8.764;2023-06-04T11:04:31;19.00;41.40
25953;DHT22;13750;50.804;8.764;2023-06-04T11:07:04;19.00;40.30
25953;DHT22;13750;50.804;8.764;2023-06-04T11:09:35;19.00;40.10
25953;DHT22;13750;50.804;8.764;2023-06-04T11:12:01;19.10;40.30
25953;DHT22;13750;50.804;8.764;2023-06-04T11:14:27;19.10;40.30
25953;DHT22;13750;50.804;8.764;2023-06-04T11:16:53;19.10;40.10
25953;DHT22;13750;50.804;8.764;2023-06-04T11:19:18;19.10;40.40
25953;DHT22;13750;50.804;8.764;2023-06-04T11:21:45;19.10;40.90
25953;DHT22;13750;50.804;8.764;2023-06-04T11:24:12;19.10;40.30
25953;DHT22;13750;50.804;8.764;2023-06-04T11:26:38;19.20;39.70
25953;DHT22;13750;50.804;8.764;2023-06-04T11:29:09;19.30;39.30
25953;DHT22;13750;50.804;8.764;2023-06-04T11:34:09;19.30;39.60
25953;DHT22;13750;50.804;8.764;2023-06-04T11:36:34;19.40;39.60
25953;DHT22;13750;50.804;8.764;2023-06-04T11:39:02;19.30;39.30
25953;DHT22;13750;50.804;8.764;2023-06-04T11:41:35;19.30;39.30
25953;DHT22;13750;50.804;8.764;2023-06-04T11:44:03;19.30;39.20
25953;DHT22;13750;50.804;8.764;2023-06-04T11:46:31;19.40;39.40
25953;DHT22;13750;50.804;8.764;2023-06-04T11:48:57;19.40;39.70
25953;DHT22;13750;50.804;8.764;2023-06-04T11:51:23;19.50;39.50
25953;DHT22;13750;50.804;8.764;2023-06-04T11:53:49;19.60;39.40
25953;DHT22;13750;50.804;8.764;2023-06-04T11:56:15;19.60;38.80
25953;DHT22;13750;50.804;8.764;2023-06-04T11:58:42;19.60;39.00
25953;DHT22;13750;50.804;8.764;2023-06-04T12:01:08;19.60;39.30
25953;DHT22;13750;50.804;8.764;2023-06-04T12:03:36;19.60;39.00
25953;DHT22;13750;50.804;8.764;2023-06-04T12:06:18;19.60;39.40
25953;DHT22;13750;50.804;8.764;2023-06-04T12:08:48;19.60;40.20
25953;DHT22;13750;50.804;8.764;2023-06-04T12:11:40;19.60;40.20
25953;DHT22;13750;50.804;8.764;2023-06-04T12:14:07;19.70;40.40
25953;DHT22;13750;50.804;8.764;2023-06-04T12:16:33;19.70;40.10
25953;DHT22;13750;50.804;8.764;2023-06-04T12:19:06;19.80;40.00
25953;DHT22;13750;50.804;8.764;2023-06-04T12:21:32;19.90;40.10
25953;DHT22;13750;50.804;8.764;2023-06-04T12:24:18;19.80;40.30
25953;DHT22;13750;50.804;8.764;2023-06-04T12:26:44;19.80;40.50
25953;DHT22;13750;50.804;8.764;2023-06-04T12:29:11;19.80;39.80
25953;DHT22;13750;50.804;8.764;2023-06-04T12:31:41;19.80;39.70
25953;DHT22;13750;50.804;8.764;2023-06-04T12:34:07;19.90;40.10
25953;DHT22;13750;50.804;8.764;2023-06-04T12:36:33;19.90;40.10
25953;DHT22;13750;50.804;8.764;2023-06-04T12:39:03;20.00;38.50
25953;DHT22;13750;50.804;8.764;2023-06-04T12:41:29;20.10;38.00
25953;DHT22;13750;50.804;8.764;2023-06-04T12:43:55;20.10;38.60
25953;DHT22;13750;50.804;8.764;2023-06-04T12:46:22;20.10;38.80
25953;DHT22;13750;50.804;8.764;2023-06-04T12:48:51;20.10;39.40
25953;DHT22;13750;50.804;8.764;2023-06-04T12:51:17;20.10;39.90
25953;DHT22;13750;50.804;8.764;2023-06-04T12:53:43;20.00;39.70
25953;DHT22;13750;50.804;8.764;2023-06-04T12:56:09;20.10;39.50
25953;DHT22;13750;50.804;8.764;2023-06-04T12:58:35;20.10;38.80
25953;DHT22;13750;50.804;8.764;2023-06-04T13:01:01;20.20;38.40
25953;DHT22;13750;50.804;8.764;2023-06-04T13:03:27;20.20;38.60
25953;DHT22;13750;50.804;8.764;2023-06-04T13:05:53;20.20;38.70
25953;DHT22;13750;50.804;8.764;2023-06-04T13:08:19;20.30;39.10
25953;DHT22;13750;50.804;8.764;2023-06-04T13:10:49;20.40;39.00
25953;DHT22;13750;50.804;8.764;2023-06-04T13:13:16;20.40;39.00
25953;DHT22;13750;50.804;8.764;2023-06-04T13:15:42;20.40;39.40
25953;DHT22;13750;50.804;8.764;2023-06-04T13:18:08;20.30;40.00
25953;DHT22;13750;50.804;8.764;2023-06-04T13:20:35;20.30;40.30
25953;DHT22;13750;50.804;8.764;2023-06-04T13:23:00;20.30;39.60
25953;DHT22;13750;50.804;8.764;2023-06-04T13:25:26;20.30;38.80
25953;DHT22;13750;50.804;8.764;2023-06-04T13:27:54;20.40;38.00
25953;DHT22;13750;50.804;8.764;2023-06-04T13:30:20;20.50;37.60
25953;DHT22;13750;50.804;8.764;2023-06-04T13:32:46;20.60;37.20
25953;DHT22;13750;50.804;8.764;2023-06-04T13:35:11;20.60;36.90
25953;DHT22;13750;50.804;8.764;2023-06-04T13:37:37;20.70;36.70
25953;DHT22;13750;50.804;8.764;2023-06-04T13:40:03;20.70;36.60
25953;DHT22;13750;50.804;8.764;2023-06-04T13:42:28;20.70;37.00
25953;DHT22;13750;50.804;8.764;2023-06-04T13:44:54;20.80;37.30
25953;DHT22;13750;50.804;8.764;2023-06-04T13:47:19;20.90;37.20
25953;DHT22;13750;50.804;8.764;2023-06-04T13:49:46;21.00;37.30
25953;DHT22;13750;50.804;8.764;2023-06-04T13:52:12;21.10;37.40
25953;DHT22;13750;50.804;8.764;2023-06-04T13:54:37;21.10;37.50
25953;DHT22;13750;50.804;8.764;2023-06-04T13:57:03;21.10;37.20
25953;DHT22;13750;50.804;8.764;2023-06-04T13:59:29;21.20;36.80
25953;DHT22;13750;50.804;8.764;2023-06-04T14:01:56;21.30;36.70
25953;DHT22;13750;50.804;8.764;2023-06-04T14:04:22;21.40;36.30
25953;DHT22;13750;50.804;8.764;2023-06-04T14:06:47;21.50;35.20
25953;DHT22;13750;50.804;8.764;2023-06-04T14:09:13;21.50;35.00
25953;DHT22;13750;50.804;8.764;2023-06-04T14:11:39;21.60;35.10
25953;DHT22;13750;50.804;8.764;2023-06-04T14:14:05;21.60;35.40
25953;DHT22;13750;50.804;8.764;2023-06-04T14:16:31;21.60;34.70
25953;DHT22;13750;50.804;8.764;2023-06-04T14:18:56;21.80;33.80
25953;DHT22;13750;50.804;8.764;2023-06-04T14:21:22;21.80;33.60
25953;DHT22;13750;50.804;8.764;2023-06-04T14:23:48;21.90;34.00
25953;DHT22;13750;50.804;8.764;2023-06-04T14:26:14;22.00;34.60
25953;DHT22;13750;50.804;8.764;2023-06-04T14:28:43;22.10;33.70
25953;DHT22;13750;50.804;8.764;2023-06-04T14:31:08;22.10;33.40
25953;DHT22;13750;50.804;8.764;2023-06-04T14:33:34;22.20;33.40
25953;DHT22;13750;50.804;8.764;2023-06-04T14:36:03;22.20;33.10
25953;DHT22;13750;50.804;8.764;2023-06-04T14:38:28;22.30;33.60
25953;DHT22;13750;50.804;8.764;2023-06-04T14:40:55;22.40;34.00
25953;DHT22;13750;50.804;8.764;2023-06-04T14:43:24;22.50;33.70
25953;DHT22;13750;50.804;8.764;2023-06-04T14:45:50;22.50;33.80
25953;DHT22;13750;50.804;8.764;2023-06-04T14:48:15;22.60;34.90
25953;DHT22;13750;50.804;8.764;2023-06-04T14:50:41;22.60;34.10
25953;DHT22;13750;50.804;8.764;2023-06-04T14:53:07;22.50;34.90
25953;DHT22;13750;50.804;8.764;2023-06-04T14:55:33;22.30;37.80
25953;DHT22;13750;50.804;8.764;2023-06-04T14:58:00;22.10;35.20
25953;DHT22;13750;50.804;8.764;2023-06-04T15:00:25;22.10;34.90
25953;DHT22;13750;50.804;8.764;2023-06-04T15:02:51;22.10;34.20
25953;DHT22;13750;50.804;8.764;2023-06-04T15:05:31;22.10;35.00
25953;DHT22;13750;50.804;8.764;2023-06-04T15:07:56;22.10;35.30
25953;DHT22;13750;50.804;8.764;2023-06-04T15:10:28;22.00;37.10
25953;DHT22;13750;50.804;8.764;2023-06-04T15:12:54;22.00;37.60
25953;DHT22;13750;50.804;8.764;2023-06-04T15:15:22;22.00;37.20
25953;DHT22;13750;50.804;8.764;2023-06-04T15:17:49;22.00;36.00
25953;DHT22;13750;50.804;8.764;2023-06-04T15:20:16;22.10;38.30
25953;DHT22;13750;50.804;8.764;2023-06-04T15:22:42;22.10;38.40
25953;DHT22;13750;50.804;8.764;2023-06-04T15:25:08;22.10;36.30
25953;DHT22;13750;50.804;8.764;2023-06-04T15:27:33;22.10;34.70
25953;DHT22;13750;50.804;8.764;2023-06-04T15:29:59;22.20;35.20
25953;DHT22;13750;50.804;8.764;2023-06-04T15:32:25;22.20;36.10
25953;DHT22;13750;50.804;8.764;2023-06-04T15:34:50;22.30;35.40
25953;DHT22;13750;50.804;8.764;2023-06-04T15:37:16;22.40;37.10
25953;DHT22;13750;50.804;8.764;2023-06-04T15:39:42;22.40;34.20
25953;DHT22;13750;50.804;8.764;2023-06-04T15:42:07;22.50;34.20
25953;DHT22;13750;50.804;8.764;2023-06-04T15:44:33;22.60;34.80
25953;DHT22;13750;50.804;8.764;2023-06-04T15:46:59;22.60;33.60
25953;DHT22;13750;50.804;8.764;2023-06-04T15:49:24;22.70;34.00
25953;DHT22;13750;50.804;8.764;2023-06-04T15:51:50;22.80;34.30
25953;DHT22;13750;50.804;8.764;2023-06-04T15:54:15;22.80;34.60
25953;DHT22;13750;50.804;8.764;2023-06-04T15:56:41;22.90;34.60
25953;DHT22;13750;50.804;8.764;2023-06-04T15:59:07;22.90;33.70
25953;DHT22;13750;50.804;8.764;2023-06-04T16:01:32;23.00;33.10
25953;DHT22;13750;50.804;8.764;2023-06-04T16:03:58;23.00;32.60
25953;DHT22;13750;50.804;8.764;2023-06-04T16:06:24;23.10;32.60
25953;DHT22;13750;50.804;8.764;2023-06-04T16:08:50;23.10;32.40
25953;DHT22;13750;50.804;8.764;2023-06-04T16:11:15;23.10;32.50
25953;DHT22;13750;50.804;8.764;2023-06-04T16:13:41;23.20;32.10
25953;DHT22;13750;50.804;8.764;2023-06-04T16:16:07;23.20;32.20
25953;DHT22;13750;50.804;8.764;2023-06-04T16:18:33;23.30;32.70
25953;DHT22;13750;50.804;8.764;2023-06-04T16:20:58;23.40;32.90
25953;DHT22;13750;50.804;8.764;2023-06-04T16:23:25;23.50;33.00
25953;DHT22;13750;50.804;8.764;2023-06-04T16:25:50;23.50;31.90
25953;DHT22;13750;50.804;8.764;2023-06-04T16:28:16;23.60;32.20